sensor_id;sensor_type;location;lat;lon;timestamp;pressure;altitude;pressure_sealevel;temperature;humidity
7940;BME280;4015;48.888;9.226;2023-07-29T00:01:40;159700.09;;;17.73;100.00
7940;BME280;4015;48.888;9.226;2023-07-29T00:04:06;159728.28;;;17.85;100.00
7940;BME280;4015;48.888;9.226;2023-07-29T00:06:31;159736.00;;;17.88;100.00
7940;BME280;4015;48.888;9.226;2023-07-29T00:08:57;159729.59;;;17.85;100.00
7940;BME280;4015;48.888;9.226;2023-07-29T00:11:22;159733.44;;;17.87;100.00
7940;BME280;4015;48.888;9.226;2023-07-29T00:13:47;159750.13;;;17.93;100.00
7940;BME280;4015;48.888;9.226;2023-07-29T00:16:15;159743.66;;;17.91;100.00
7940;BME280;4015;48.888;9.226;2023-07-29T00:18:42;159739.84;;;17.89;100.00
7940;BME280;4015;48.888;9.226;2023-07-29T00:21:07;159757.78;;;17.96;100.00
7940;BME280;4015;48.888;9.226;2023-07-29T00:23:33;159762.97;;;17.98;100.00
7940;BME280;4015;48.888;9.226;2023-07-29T00:25:58;159769.34;;;18.01;100.00
7940;BME280;4015;48.888;9.226;2023-07-29T00:28:23;159793.75;;;18.11;100.00
7940;BME280;4015;48.888;9.226;2023-07-29T00:30:49;159796.31;;;18.12;100.00
7940;BME280;4015;48.888;9.226;2023-07-29T00:33:14;159823.22;;;18.22;100.00
7940;BME280;4015;48.888;9.226;2023-07-29T00:35:40;159842.53;;;18.30;100.00
7940;BME280;4015;48.888;9.226;2023-07-29T00:38:05;159863.03;;;18.38;100.00
7940;BME280;4015;48.888;9.226;2023-07-29T00:40:30;159829.69;;;18.25;100.00
7940;BME280;4015;48.888;9.226;2023-07-29T00:43:00;159845.06;;;18.31;100.00
7940;BME280;4015;48.888;9.226;2023-07-29T00:45:26;159804.00;;;18.15;100.00
7940;BME280;4015;48.888;9.226;2023-07-29T00:47:52;159814.28;;;18.19;100.00
7940;BME280;4015;48.888;9.226;2023-07-29T00:50:17;159783.47;;;18.06;100.00
7940;BME280;4015;48.888;9.226;2023-07-29T00:52:43;159788.59;;;18.09;100.00
7940;BME280;4015;48.888;9.226;2023-07-29T00:55:09;159798.88;;;18.13;100.00
7940;BME280;4015;48.888;9.226;2023-07-29T00:57:35;159805.28;;;18.15;100.00
7940;BME280;4015;48.888;9.226;2023-07-29T01:00:01;159815.56;;;18.19;100.00
7940;BME280;4015;48.888;9.226;2023-07-29T01:02:28;159848.91;;;18.32;100.00
7940;BME280;4015;48.888;9.226;2023-07-29T01:04:57;159839.91;;;18.29;100.00
7940;BME280;4015;48.888;9.226;2023-07-29T01:07:53;159842.53;;;18.30;100.00
7940;BME280;4015;48.888;9.226;2023-07-29T01:15:33;159861.75;;;18.38;100.00
7940;BME280;4015;48.888;9.226;2023-07-29T01:18:05;159821.94;;;18.22;100.00
7940;BME280;4015;48.888;9.226;2023-07-29T01:20:37;159800.16;;;18.13;100.00
7940;BME280;4015;48.888;9.226;2023-07-29T01:23:04;159836.06;;;18.27;100.00
7940;BME280;4015;48.888;9.226;2023-07-29T01:25:29;159828.41;;;18.24;100.00
7940;BME280;4015;48.888;9.226;2023-07-29T01:27:54;159809.16;;;18.17;100.00
7940;BME280;4015;48.888;9.226;2023-07-29T01:30:22;159841.25;;;18.29;100.00
7940;BME280;4015;48.888;9.226;2023-07-29T01:35:51;159857.91;;;18.36;100.00
7940;BME280;4015;48.888;9.226;2023-07-29T01:38:19;159864.31;;;18.39;100.00
7940;BME280;4015;48.888;9.226;2023-07-29T01:40:48;159861.75;;;18.38;100.00
7940;BME280;4015;48.888;9.226;2023-07-29T01:43:15;159834.78;;;18.27;100.00
7940;BME280;4015;48.888;9.226;2023-07-29T01:45:40;159843.81;;;18.30;100.00
7940;BME280;4015;48.888;9.226;2023-07-29T01:48:06;159843.81;;;18.30;100.00
7940;BME280;4015;48.888;9.226;2023-07-29T01:50:32;159824.56;;;18.23;100.00
7940;BME280;4015;48.888;9.226;2023-07-29T01:52:58;159833.50;;;18.26;100.00
7940;BME280;4015;48.888;9.226;2023-07-29T01:55:24;159848.91;;;18.32;100.00
7940;BME280;4015;48.888;9.226;2023-07-29T01:57:49;159856.63;;;18.36;100.00
7940;BME280;4015;48.888;9.226;2023-07-29T02:00:15;159846.34;;;18.31;100.00
7940;BME280;4015;48.888;9.226;2023-07-29T02:02:41;159860.47;;;18.37;100.00
7940;BME280;4015;48.888;9.226;2023-07-29T02:05:06;159872.03;;;18.42;100.00
7940;BME280;4015;48.888;9.226;2023-07-29T02:07:31;159878.44;;;18.44;100.00
7940;BME280;4015;48.888;9.226;2023-07-29T02:09:57;159874.59;;;18.43;100.00
7940;BME280;4015;48.888;9.226;2023-07-29T02:12:22;159843.81;;;18.30;100.00
7940;BME280;4015;48.888;9.226;2023-07-29T02:14:47;159865.59;;;18.39;100.00
7940;BME280;4015;48.888;9.226;2023-07-29T02:17:13;159869.44;;;18.41;100.00
7940;BME280;4015;48.888;9.226;2023-07-29T02:19:38;159854.03;;;18.34;100.00
7940;BME280;4015;48.888;9.226;2023-07-29T02:22:03;159838.63;;;18.28;100.00
7940;BME280;4015;48.888;9.226;2023-07-29T02:24:29;159846.34;;;18.31;100.00
7940;BME280;4015;48.888;9.226;2023-07-29T02:26:54;159842.53;;;18.30;100.00
7940;BME280;4015;48.888;9.226;2023-07-29T02:29:20;159847.63;;;18.32;100.00
7940;BME280;4015;48.888;9.226;2023-07-29T02:31:46;159866.88;;;18.40;100.00
7940;BME280;4015;48.888;9.226;2023-07-29T02:34:12;159843.81;;;18.30;100.00
7940;BME280;4015;48.888;9.226;2023-07-29T02:36:38;159851.47;;;18.33;100.00
7940;BME280;4015;48.888;9.226;2023-07-29T02:39:03;159887.41;;;18.48;100.00
7940;BME280;4015;48.888;9.226;2023-07-29T02:41:29;159877.16;;;18.44;100.00
7940;BME280;4015;48.888;9.226;2023-07-29T02:43:54;159870.72;;;18.41;100.00
7940;BME280;4015;48.888;9.226;2023-07-29T02:46:19;159864.31;;;18.39;100.00
7940;BME280;4015;48.888;9.226;2023-07-29T02:48:45;159879.72;;;18.45;100.00
7940;BME280;4015;48.888;9.226;2023-07-29T02:51:10;159855.31;;;18.35;100.00
7940;BME280;4015;48.888;9.226;2023-07-29T02:53:35;159834.78;;;18.27;100.00
7940;BME280;4015;48.888;9.226;2023-07-29T02:56:04;159860.47;;;18.37;100.00
7940;BME280;4015;48.888;9.226;2023-07-29T02:58:29;159854.03;;;18.34;100.00
7940;BME280;4015;48.888;9.226;2023-07-29T03:01:05;159823.22;;;18.22;100.00
7940;BME280;4015;48.888;9.226;2023-07-29T03:03:31;159814.28;;;18.19;100.00
7940;BME280;4015;48.888;9.226;2023-07-29T03:06:08;159832.22;;;18.26;100.00
7940;BME280;4015;48.888;9.226;2023-07-29T03:08:34;159792.44;;;18.10;100.00
7940;BME280;4015;48.888;9.226;2023-07-29T03:11:06;159814.28;;;18.19;100.00
7940;BME280;4015;48.888;9.226;2023-07-29T03:13:32;159775.75;;;18.03;100.00
7940;BME280;4015;48.888;9.226;2023-07-29T03:16:11;159778.34;;;18.04;100.00
7940;BME280;4015;48.888;9.226;2023-07-29T03:18:37;159748.84;;;17.93;100.00
7940;BME280;4015;48.888;9.226;2023-07-29T03:21:03;159715.50;;;17.79;100.00
7940;BME280;4015;48.888;9.226;2023-07-29T03:23:29;159742.41;;;17.90;100.00
7940;BME280;4015;48.888;9.226;2023-07-29T03:25:56;159701.38;;;17.74;100.00
7940;BME280;4015;48.888;9.226;2023-07-29T03:28:27;159712.88;;;17.78;100.00
7940;BME280;4015;48.888;9.226;2023-07-29T03:30:56;159707.75;;;17.76;100.00
7940;BME280;4015;48.888;9.226;2023-07-29T03:33:22;159714.22;;;17.79;100.00
7940;BME280;4015;48.888;9.226;2023-07-29T03:35:48;159743.66;;;17.91;100.00
7940;BME280;4015;48.888;9.226;2023-07-29T03:38:14;159743.66;;;17.91;100.00
7940;BME280;4015;48.888;9.226;2023-07-29T03:40:40;159775.75;;;18.03;100.00
7940;BME280;4015;48.888;9.226;2023-07-29T03:43:06;159793.75;;;18.11;100.00
7940;BME280;4015;48.888;9.226;2023-07-29T03:45:31;159773.19;;;18.02;100.00
7940;BME280;4015;48.888;9.226;2023-07-29T03:47:57;159782.19;;;18.06;100.00
7940;BME280;4015;48.888;9.226;2023-07-29T03:50:22;159820.66;;;18.21;100.00
7940;BME280;4015;48.888;9.226;2023-07-29T03:52:48;159805.28;;;18.15;100.00
7940;BME280;4015;48.888;9.226;2023-07-29T03:55:13;159830.97;;;18.25;100.00
7940;BME280;4015;48.888;9.226;2023-07-29T03:57:38;159857.91;;;18.36;100.00
7940;BME280;4015;48.888;9.226;2023-07-29T04:00:04;159845.06;;;18.31;100.00
7940;BME280;4015;48.888;9.226;2023-07-29T04:02:31;159842.53;;;18.30;100.00
7940;BME280;4015;48.888;9.226;2023-07-29T04:04:56;159857.91;;;18.36;100.00
7940;BME280;4015;48.888;9.226;2023-07-29T04:07:21;159851.47;;;18.33;100.00
7940;BME280;4015;48.888;9.226;2023-07-29T04:09:46;159855.31;;;18.35;100.00
7940;BME280;4015;48.888;9.226;2023-07-29T04:12:12;159851.47;;;18.33;100.00
7940;BME280;4015;48.888;9.226;2023-07-29T04:14:37;159820.66;;;18.21;100.00
7940;BME280;4015;48.888;9.226;2023-07-29T04:17:03;159842.53;;;18.30;100.00
7940;BME280;4015;48.888;9.226;2023-07-29T04:19:28;159747.56;;;17.92;100.00
7940;BME280;4015;48.888;9.226;2023-07-29T04:21:53;159766.81;;;18.00;100.00
7940;BME280;4015;48.888;9.226;2023-07-29T04:24:19;159756.50;;;17.96;100.00
7940;BME280;4015;48.888;9.226;2023-07-29T04:26:45;159791.16;;;18.10;100.00
7940;BME280;4015;48.888;9.226;2023-07-29T04:29:11;159774.47;;;18.03;100.00
7940;BME280;4015;48.888;9.226;2023-07-29T04:31:36;159746.28;;;17.92;100.00
7940;BME280;4015;48.888;9.226;2023-07-29T04:34:02;159714.22;;;17.79;100.00
7940;BME280;4015;48.888;9.226;2023-07-29T04:36:27;159730.88;;;17.86;100.00
7940;BME280;4015;48.888;9.226;2023-07-29T04:38:53;159747.56;;;17.92;100.00
7940;BME280;4015;48.888;9.226;2023-07-29T04:41:18;159752.69;;;17.94;100.00
7940;BME280;4015;48.888;9.226;2023-07-29T04:43:43;159742.41;;;17.90;100.00
7940;BME280;4015;48.888;9.226;2023-07-29T04:46:09;159791.16;;;18.10;100.00
7940;BME280;4015;48.888;9.226;2023-07-29T04:48:34;159734.72;;;17.87;100.00
7940;BME280;4015;48.888;9.226;2023-07-29T04:50:59;159703.94;;;17.75;100.00
7940;BME280;4015;48.888;9.226;2023-07-29T04:53:25;159707.75;;;17.76;100.00
7940;BME280;4015;48.888;9.226;2023-07-29T04:55:50;159694.94;;;17.71;100.00
7940;BME280;4015;48.888;9.226;2023-07-29T04:58:15;159700.09;;;17.73;100.00
7940;BME280;4015;48.888;9.226;2023-07-29T05:00:41;159678.19;;;17.65;100.00
7940;BME280;4015;48.888;9.226;2023-07-29T05:03:06;159716.75;;;17.80;100.00
7940;BME280;4015;48.888;9.226;2023-07-29T05:05:32;159737.28;;;17.88;100.00
7940;BME280;4015;48.888;9.226;2023-07-29T05:07:57;159742.41;;;17.90;100.00
7940;BME280;4015;48.888;9.226;2023-07-29T05:10:22;159773.19;;;18.02;100.00
7940;BME280;4015;48.888;9.226;2023-07-29T05:12:48;159786.03;;;18.08;100.00
7940;BME280;4015;48.888;9.226;2023-07-29T05:15:13;159821.94;;;18.22;100.00
7940;BME280;4015;48.888;9.226;2023-07-29T05:17:39;159821.94;;;18.22;100.00
7940;BME280;4015;48.888;9.226;2023-07-29T05:20:05;159818.13;;;18.20;100.00
7940;BME280;4015;48.888;9.226;2023-07-29T05:22:30;159838.63;;;18.28;100.00
7940;BME280;4015;48.888;9.226;2023-07-29T05:24:55;159857.91;;;18.36;100.00
7940;BME280;4015;48.888;9.226;2023-07-29T05:27:21;159873.31;;;18.42;100.00
7940;BME280;4015;48.888;9.226;2023-07-29T05:29:46;159888.72;;;18.48;100.00
7940;BME280;4015;48.888;9.226;2023-07-29T05:32:11;159888.72;;;18.48;100.00
7940;BME280;4015;48.888;9.226;2023-07-29T05:34:37;159911.81;;;18.57;100.00
7940;BME280;4015;48.888;9.226;2023-07-29T05:37:02;159901.53;;;18.53;100.00
7940;BME280;4015;48.888;9.226;2023-07-29T05:39:28;159900.25;;;18.53;100.00
7940;BME280;4015;48.888;9.226;2023-07-29T05:41:53;159919.53;;;18.60;100.00
7940;BME280;4015;48.888;9.226;2023-07-29T05:44:19;159937.53;;;18.68;100.00
7940;BME280;4015;48.888;9.226;2023-07-29T05:46:44;159915.66;;;18.59;100.00
7940;BME280;4015;48.888;9.226;2023-07-29T05:49:09;159916.91;;;18.59;100.00
7940;BME280;4015;48.888;9.226;2023-07-29T05:51:35;159920.81;;;18.61;100.00
7940;BME280;4015;48.888;9.226;2023-07-29T05:54:00;159928.50;;;18.64;100.00
7940;BME280;4015;48.888;9.226;2023-07-29T05:56:25;159956.78;;;18.75;100.00
7940;BME280;4015;48.888;9.226;2023-07-29T05:58:50;159985.03;;;18.86;100.00
7940;BME280;4015;48.888;9.226;2023-07-29T06:01:17;160003.00;;;18.94;100.00
7940;BME280;4015;48.888;9.226;2023-07-29T06:03:46;160046.66;;;19.11;100.00
7940;BME280;4015;48.888;9.226;2023-07-29T06:06:11;160089.00;;;19.28;100.00
7940;BME280;4015;48.888;9.226;2023-07-29T06:08:37;160099.28;;;19.32;100.00
7940;BME280;4015;48.888;9.226;2023-07-29T06:11:02;160166.09;;;19.58;100.00
7940;BME280;4015;48.888;9.226;2023-07-29T06:13:28;160218.75;;;19.79;100.00
7940;BME280;4015;48.888;9.226;2023-07-29T06:15:54;160274.00;;;20.01;100.00
7940;BME280;4015;48.888;9.226;2023-07-29T06:18:19;160338.25;;;20.27;100.00
7940;BME280;4015;48.888;9.226;2023-07-29T06:20:44;160380.66;;;20.43;100.00
7940;BME280;4015;48.888;9.226;2023-07-29T06:23:10;160397.41;;;20.50;100.00
7940;BME280;4015;48.888;9.226;2023-07-29T06:25:35;160408.94;;;20.55;100.00
7940;BME280;4015;48.888;9.226;2023-07-29T06:28:00;160466.75;;;20.78;100.00
7940;BME280;4015;48.888;9.226;2023-07-29T06:30:25;160444.94;;;20.69;100.00
7940;BME280;4015;48.888;9.226;2023-07-29T06:32:51;160414.09;;;20.57;100.00
7940;BME280;4015;48.888;9.226;2023-07-29T06:35:16;160407.66;;;20.54;100.00
7940;BME280;4015;48.888;9.226;2023-07-29T06:37:41;160366.50;;;20.38;100.00
7940;BME280;4015;48.888;9.226;2023-07-29T06:40:07;160372.91;;;20.40;100.00
7940;BME280;4015;48.888;9.226;2023-07-29T06:42:33;160354.94;;;20.33;100.00
7940;BME280;4015;48.888;9.226;2023-07-29T06:44:58;160321.53;;;20.20;100.00
7940;BME280;4015;48.888;9.226;2023-07-29T06:47:23;160303.56;;;20.13;100.00
7940;BME280;4015;48.888;9.226;2023-07-29T06:49:49;160291.97;;;20.08;100.00
7940;BME280;4015;48.888;9.226;2023-07-29T06:52:14;160263.72;;;19.97;100.00
7940;BME280;4015;48.888;9.226;2023-07-29T06:54:39;160257.31;;;19.94;100.00
7940;BME280;4015;48.888;9.226;2023-07-29T06:57:05;160320.25;;;20.19;100.00
7940;BME280;4015;48.888;9.226;2023-07-29T06:59:30;160330.50;;;20.24;100.00
7940;BME280;4015;48.888;9.226;2023-07-29T07:01:56;160316.41;;;20.18;100.00
7940;BME280;4015;48.888;9.226;2023-07-29T07:04:21;160254.75;;;19.93;100.00
7940;BME280;4015;48.888;9.226;2023-07-29T07:06:46;160293.25;;;20.09;100.00
7940;BME280;4015;48.888;9.226;2023-07-29T07:09:12;160262.44;;;19.97;100.00
7940;BME280;4015;48.888;9.226;2023-07-29T07:11:37;160238.06;;;19.87;100.00
7940;BME280;4015;48.888;9.226;2023-07-29T07:14:02;160213.63;;;19.77;100.00
7940;BME280;4015;48.888;9.226;2023-07-29T07:16:28;160247.00;;;19.90;100.00
7940;BME280;4015;48.888;9.226;2023-07-29T07:18:56;160247.00;;;19.90;100.00
7940;BME280;4015;48.888;9.226;2023-07-29T07:21:22;160240.63;;;19.88;100.00
7940;BME280;4015;48.888;9.226;2023-07-29T07:23:49;160212.34;;;19.77;100.00
7940;BME280;4015;48.888;9.226;2023-07-29T07:26:15;160257.31;;;19.94;100.00
7940;BME280;4015;48.888;9.226;2023-07-29T07:28:40;160212.34;;;19.77;100.00
7940;BME280;4015;48.888;9.226;2023-07-29T07:31:05;160209.78;;;19.76;100.00
7940;BME280;4015;48.888;9.226;2023-07-29T07:33:31;160220.03;;;19.80;100.00
7940;BME280;4015;48.888;9.226;2023-07-29T07:35:56;160232.88;;;19.85;100.00
7940;BME280;4015;48.888;9.226;2023-07-29T07:38:21;160268.88;;;19.99;100.00
7940;BME280;4015;48.888;9.226;2023-07-29T07:40:54;160329.22;;;20.23;100.00
7940;BME280;4015;48.888;9.226;2023-07-29T07:43:23;160338.25;;;20.27;100.00
7940;BME280;4015;48.888;9.226;2023-07-29T07:45:48;160347.25;;;20.30;100.00
7940;BME280;4015;48.888;9.226;2023-07-29T07:48:14;160325.38;;;20.21;100.00
7940;BME280;4015;48.888;9.226;2023-07-29T07:50:39;160362.63;;;20.36;100.00
7940;BME280;4015;48.888;9.226;2023-07-29T07:53:05;160374.19;;;20.41;100.00
7940;BME280;4015;48.888;9.226;2023-07-29T07:55:30;160405.09;;;20.53;100.00
7940;BME280;4015;48.888;9.226;2023-07-29T07:57:55;160451.34;;;20.71;100.00
7940;BME280;4015;48.888;9.226;2023-07-29T08:00:21;160497.63;;;20.90;100.00
7940;BME280;4015;48.888;9.226;2023-07-29T08:02:46;160601.78;;;21.31;100.00
7940;BME280;4015;48.888;9.226;2023-07-29T08:05:12;160672.47;;;21.59;99.93
7940;BME280;4015;48.888;9.226;2023-07-29T08:07:37;160871.84;;;22.38;97.48
7940;BME280;4015;48.888;9.226;2023-07-29T08:10:03;161358.31;;;24.31;89.08
7940;BME280;4015;48.888;9.226;2023-07-29T08:12:28;161864.69;;;26.31;81.07
7940;BME280;4015;48.888;9.226;2023-07-29T08:14:53;161957.53;;;26.68;76.94
7940;BME280;4015;48.888;9.226;2023-07-29T08:17:19;161905.97;;;26.47;75.92
7940;BME280;4015;48.888;9.226;2023-07-29T08:19:44;162033.59;;;26.98;76.93
7940;BME280;4015;48.888;9.226;2023-07-29T08:22:09;162433.47;;;28.56;71.78
7940;BME280;4015;48.888;9.226;2023-07-29T08:24:35;162621.91;;;29.30;68.77
7940;BME280;4015;48.888;9.226;2023-07-29T08:27:00;162643.81;;;29.39;68.23
7940;BME280;4015;48.888;9.226;2023-07-29T08:29:26;162367.66;;;28.30;68.79
7940;BME280;4015;48.888;9.226;2023-07-29T08:31:51;162045.16;;;27.02;72.96
7940;BME280;4015;48.888;9.226;2023-07-29T08:34:17;161804.09;;;26.07;78.04
7940;BME280;4015;48.888;9.226;2023-07-29T08:36:42;161576.06;;;25.17;78.81
7940;BME280;4015;48.888;9.226;2023-07-29T08:39:07;161574.78;;;25.16;79.67
7940;BME280;4015;48.888;9.226;2023-07-29T08:41:38;161402.16;;;24.48;83.62
7940;BME280;4015;48.888;9.226;2023-07-29T08:44:09;161425.31;;;24.57;80.77
7940;BME280;4015;48.888;9.226;2023-07-29T08:46:38;161453.66;;;24.68;79.54
7940;BME280;4015;48.888;9.226;2023-07-29T08:49:04;161734.53;;;25.79;78.62
7940;BME280;4015;48.888;9.226;2023-07-29T08:51:31;162095.50;;;27.22;73.36
7940;BME280;4015;48.888;9.226;2023-07-29T08:53:58;162432.19;;;28.55;69.90
7940;BME280;4015;48.888;9.226;2023-07-29T08:56:24;162623.19;;;29.31;67.13
7940;BME280;4015;48.888;9.226;2023-07-29T08:58:50;162862.06;;;30.25;67.38
7940;BME280;4015;48.888;9.226;2023-07-29T09:01:15;162996.34;;;30.78;62.73
7940;BME280;4015;48.888;9.226;2023-07-29T09:03:41;163237.91;;;31.73;57.85
7940;BME280;4015;48.888;9.226;2023-07-29T09:06:07;163128.09;;;31.30;58.98
7940;BME280;4015;48.888;9.226;2023-07-29T09:08:33;163461.50;;;32.61;56.63
7940;BME280;4015;48.888;9.226;2023-07-29T09:10:59;163683.91;;;33.49;57.03
7940;BME280;4015;48.888;9.226;2023-07-29T09:13:25;163319.31;;;32.05;57.91
7940;BME280;4015;48.888;9.226;2023-07-29T09:15:54;163001.50;;;30.80;62.36
7940;BME280;4015;48.888;9.226;2023-07-29T09:18:26;162874.97;;;30.30;61.85
7940;BME280;4015;48.888;9.226;2023-07-29T09:20:52;162802.59;;;30.01;63.71
7940;BME280;4015;48.888;9.226;2023-07-29T09:23:18;162796.19;;;29.99;60.52
7940;BME280;4015;48.888;9.226;2023-07-29T09:25:46;162953.69;;;30.61;62.88
7940;BME280;4015;48.888;9.226;2023-07-29T09:28:13;163283.16;;;31.91;59.45
7940;BME280;4015;48.888;9.226;2023-07-29T09:30:40;163147.53;;;31.37;61.06
7940;BME280;4015;48.888;9.226;2023-07-29T09:33:06;163067.41;;;31.06;62.30
7940;BME280;4015;48.888;9.226;2023-07-29T09:35:35;163095.78;;;31.17;57.95
7940;BME280;4015;48.888;9.226;2023-07-29T09:38:02;163077.69;;;31.10;58.18
7940;BME280;4015;48.888;9.226;2023-07-29T09:40:34;163373.63;;;32.27;55.17
7940;BME280;4015;48.888;9.226;2023-07-29T09:43:00;163045.41;;;30.97;59.10
7940;BME280;4015;48.888;9.226;2023-07-29T09:45:26;162916.25;;;30.46;57.36
7940;BME280;4015;48.888;9.226;2023-07-29T09:47:53;162410.22;;;28.46;62.31
7940;BME280;4015;48.888;9.226;2023-07-29T09:50:22;162176.72;;;27.54;67.40
7940;BME280;4015;48.888;9.226;2023-07-29T09:52:48;161994.88;;;26.82;71.88
7940;BME280;4015;48.888;9.226;2023-07-29T09:55:18;162005.22;;;26.86;69.57
7940;BME280;4015;48.888;9.226;2023-07-29T09:57:44;161887.94;;;26.40;72.00
7940;BME280;4015;48.888;9.226;2023-07-29T10:00:13;161679.06;;;25.58;74.90
7940;BME280;4015;48.888;9.226;2023-07-29T10:02:42;161600.50;;;25.26;77.12
7940;BME280;4015;48.888;9.226;2023-07-29T10:05:08;161380.28;;;24.39;83.91
7940;BME280;4015;48.888;9.226;2023-07-29T10:07:36;161192.31;;;23.65;87.81
7940;BME280;4015;48.888;9.226;2023-07-29T10:10:03;160959.28;;;22.73;88.21
7940;BME280;4015;48.888;9.226;2023-07-29T10:12:30;160743.16;;;21.87;91.51
7940;BME280;4015;48.888;9.226;2023-07-29T10:14:59;160563.16;;;21.16;95.58
7940;BME280;4015;48.888;9.226;2023-07-29T10:17:26;160524.63;;;21.00;98.41
7940;BME280;4015;48.888;9.226;2023-07-29T10:19:51;160792.06;;;22.06;92.49
7940;BME280;4015;48.888;9.226;2023-07-29T10:22:20;161129.19;;;23.40;85.52
7940;BME280;4015;48.888;9.226;2023-07-29T10:24:47;161328.72;;;24.19;81.22
7940;BME280;4015;48.888;9.226;2023-07-29T10:27:17;161153.63;;;23.50;84.95
7940;BME280;4015;48.888;9.226;2023-07-29T10:29:43;161032.69;;;23.02;85.36
7940;BME280;4015;48.888;9.226;2023-07-29T10:32:11;161126.63;;;23.39;84.21
7940;BME280;4015;48.888;9.226;2023-07-29T10:34:37;161484.56;;;24.81;80.80
7940;BME280;4015;48.888;9.226;2023-07-29T10:37:03;161655.91;;;25.48;77.24
7940;BME280;4015;48.888;9.226;2023-07-29T10:39:38;161965.22;;;26.71;73.58
7940;BME280;4015;48.888;9.226;2023-07-29T10:42:05;162290.25;;;27.99;67.36
7940;BME280;4015;48.888;9.226;2023-07-29T10:47:17;162372.84;;;28.32;67.61
7940;BME280;4015;48.888;9.226;2023-07-29T10:49:47;162339.25;;;28.18;66.14
7940;BME280;4015;48.888;9.226;2023-07-29T10:52:16;162700.66;;;29.61;61.52
7940;BME280;4015;48.888;9.226;2023-07-29T10:54:46;162988.63;;;30.75;61.99
7940;BME280;4015;48.888;9.226;2023-07-29T10:57:16;162736.78;;;29.75;61.40
7940;BME280;4015;48.888;9.226;2023-07-29T10:59:55;162896.91;;;30.39;61.87
7940;BME280;4015;48.888;9.226;2023-07-29T11:02:29;162880.13;;;30.32;61.66
7940;BME280;4015;48.888;9.226;2023-07-29T11:04:54;162694.19;;;29.59;61.77
7940;BME280;4015;48.888;9.226;2023-07-29T11:07:21;162334.13;;;28.16;65.47
7940;BME280;4015;48.888;9.226;2023-07-29T11:10:02;161909.84;;;26.49;68.41
7940;BME280;4015;48.888;9.226;2023-07-29T11:12:46;161771.91;;;25.94;71.88
7940;BME280;4015;48.888;9.226;2023-07-29T11:15:14;162370.22;;;28.31;64.02
7940;BME280;4015;48.888;9.226;2023-07-29T11:17:51;162645.09;;;29.39;63.93
7940;BME280;4015;48.888;9.226;2023-07-29T11:20:19;162682.56;;;29.54;60.82
7940;BME280;4015;48.888;9.226;2023-07-29T11:22:45;163199.16;;;31.58;55.93
7940;BME280;4015;48.888;9.226;2023-07-29T11:25:13;163274.16;;;31.87;56.63
7940;BME280;4015;48.888;9.226;2023-07-29T11:27:39;162652.88;;;29.42;57.99
7940;BME280;4015;48.888;9.226;2023-07-29T11:30:06;162307.03;;;28.06;60.54
7940;BME280;4015;48.888;9.226;2023-07-29T11:32:34;162087.75;;;27.19;64.76
7940;BME280;4015;48.888;9.226;2023-07-29T11:35:04;162041.28;;;27.01;65.06
7940;BME280;4015;48.888;9.226;2023-07-29T11:37:30;162003.94;;;26.86;65.39
7940;BME280;4015;48.888;9.226;2023-07-29T11:39:55;162201.19;;;27.64;64.76
7940;BME280;4015;48.888;9.226;2023-07-29T11:42:20;162411.50;;;28.47;61.67
7940;BME280;4015;48.888;9.226;2023-07-29T11:44:46;162478.63;;;28.73;60.64
7940;BME280;4015;48.888;9.226;2023-07-29T11:47:12;162376.69;;;28.33;61.76
7940;BME280;4015;48.888;9.226;2023-07-29T11:49:38;162214.16;;;27.69;61.72
7940;BME280;4015;48.888;9.226;2023-07-29T11:52:06;162210.25;;;27.67;63.88
7940;BME280;4015;48.888;9.226;2023-07-29T11:54:32;162179.31;;;27.55;63.36
7940;BME280;4015;48.888;9.226;2023-07-29T11:56:58;162056.81;;;27.07;64.38
7940;BME280;4015;48.888;9.226;2023-07-29T11:59:23;162033.59;;;26.98;64.27
7940;BME280;4015;48.888;9.226;2023-07-29T12:01:49;162018.09;;;26.92;65.31
7940;BME280;4015;48.888;9.226;2023-07-29T12:04:15;162236.06;;;27.78;62.70
7940;BME280;4015;48.888;9.226;2023-07-29T12:06:41;162717.44;;;29.68;59.02
7940;BME280;4015;48.888;9.226;2023-07-29T12:09:07;162820.69;;;30.08;57.87
7940;BME280;4015;48.888;9.226;2023-07-29T12:11:34;162907.25;;;30.43;59.44
7940;BME280;4015;48.888;9.226;2023-07-29T12:14:00;163063.50;;;31.04;54.43
7940;BME280;4015;48.888;9.226;2023-07-29T12:16:25;163223.69;;;31.67;52.84
7940;BME280;4015;48.888;9.226;2023-07-29T12:18:50;163051.91;;;31.00;53.82
7940;BME280;4015;48.888;9.226;2023-07-29T12:21:17;163097.06;;;31.17;52.00
7940;BME280;4015;48.888;9.226;2023-07-29T12:23:43;162828.50;;;30.12;52.60
7940;BME280;4015;48.888;9.226;2023-07-29T12:26:09;162929.19;;;30.51;56.73
7940;BME280;4015;48.888;9.226;2023-07-29T12:28:34;162712.25;;;29.66;56.43
7940;BME280;4015;48.888;9.226;2023-07-29T12:30:59;162612.84;;;29.26;59.00
7940;BME280;4015;48.888;9.226;2023-07-29T12:33:32;162269.63;;;27.91;59.20
7940;BME280;4015;48.888;9.226;2023-07-29T12:35:58;162241.25;;;27.80;61.86
7940;BME280;4015;48.888;9.226;2023-07-29T12:38:26;162259.31;;;27.87;63.92
7940;BME280;4015;48.888;9.226;2023-07-29T12:40:52;162224.50;;;27.73;58.99
7940;BME280;4015;48.888;9.226;2023-07-29T12:43:17;162328.91;;;28.14;60.32
7940;BME280;4015;48.888;9.226;2023-07-29T12:45:42;162371.56;;;28.31;57.77
7940;BME280;4015;48.888;9.226;2023-07-29T12:48:09;162599.94;;;29.21;56.05
7940;BME280;4015;48.888;9.226;2023-07-29T12:50:35;162815.53;;;30.06;51.64
7940;BME280;4015;48.888;9.226;2023-07-29T12:53:00;163138.47;;;31.34;50.69
7940;BME280;4015;48.888;9.226;2023-07-29T12:55:25;163546.88;;;32.95;48.24
7940;BME280;4015;48.888;9.226;2023-07-29T12:57:51;163903.75;;;34.35;44.77
7940;BME280;4015;48.888;9.226;2023-07-29T13:00:16;164034.41;;;34.87;43.49
7940;BME280;4015;48.888;9.226;2023-07-29T13:02:42;164407.16;;;36.34;44.18
7940;BME280;4015;48.888;9.226;2023-07-29T13:05:09;164544.38;;;36.88;44.20
7940;BME280;4015;48.888;9.226;2023-07-29T13:07:37;165126.00;;;39.17;39.38
7940;BME280;4015;48.888;9.226;2023-07-29T13:10:02;165074.09;;;38.96;40.23
7940;BME280;4015;48.888;9.226;2023-07-29T13:12:28;164101.69;;;35.13;42.59